Time;durP1;ratioP1;P1;durP2;ratioP2;P2;SDS_P1;SDS_P2;PMS_P1;PMS_P2;Temp;Humidity;BMP_temperature;BMP_pressure;BME280_temperature;BME280_humidity;BME280_pressure;Samples;Min_cycle;Max_cycle;Signal;HPM_P1;HPM_P2
2020/12/31 00:01:27;;;;;;;34.25;18.33;;;;;;;5.92;87.97;99336.06;4997681;28;20033;-69
2020/12/31 00:03:54;;;;;;;35.33;18.92;;;;;;;5.99;87.96;99337.44;5014502;28;20089;-69
2020/12/31 00:06:20;;;;;;;34.28;19.15;;;;;;;5.97;87.84;99341.09;5031992;28;20052;-70
2020/12/31 00:08:46;;;;;;;31.92;18.15;;;;;;;5.94;87.40;99322.75;5031899;28;20063;-71
2020/12/31 00:11:12;;;;;;;32.70;18.42;;;;;;;6.00;88.48;99339.16;5032056;28;20052;-70
2020/12/31 00:13:38;;;;;;;33.88;18.80;;;;;;;5.97;88.84;99341.09;5014794;28;20033;-68
2020/12/31 00:16:05;;;;;;;35.38;19.20;;;;;;;6.00;88.60;99327.72;5032224;28;20030;-68
2020/12/31 00:18:30;;;;;;;35.80;18.60;;;;;;;5.98;88.78;99332.22;5014326;28;20048;-68
2020/12/31 00:20:56;;;;;;;38.30;19.70;;;;;;;5.56;89.10;99279.84;5015208;28;20037;-67
2020/12/31 00:23:21;;;;;;;39.10;20.02;;;;;;;5.79;89.06;99318.25;5032218;28;20474;-68
2020/12/31 00:25:52;;;;;;;40.28;19.90;;;;;;;5.89;89.09;99335.38;5015007;28;20042;-67
2020/12/31 00:28:19;;;;;;;40.83;20.85;;;;;;;5.84;89.51;99340.03;5032310;28;20041;-69
2020/12/31 00:30:45;;;;;;;44.47;21.38;;;;;;;5.58;89.88;99307.91;5032510;28;20026;-69
2020/12/31 00:33:19;;;;;;;39.80;20.30;;;;;;;5.68;89.48;99316.22;5032605;28;20473;-70
2020/12/31 00:35:45;;;;;;;;;;;;;;;5.97;89.32;99356.97;5032839;28;20099;-70
2020/12/31 00:38:11;;;;;;;40.67;20.05;;;;;;;5.99;89.37;99357.78;5000070;28;20286;-70
2020/12/31 00:40:36;;;;;;;45.35;21.05;;;;;;;5.93;89.67;99371.34;5035860;28;20050;-69
2020/12/31 00:43:03;;;;;;;40.95;20.27;;;;;;;5.93;89.38;99373.97;5036104;28;20037;-70
2020/12/31 00:45:28;;;;;;;42.45;20.17;;;;;;;5.89;89.18;99370.63;5018235;28;20398;-70
2020/12/31 00:47:53;;;;;;;40.47;21.05;;;;;;;5.91;89.12;99386.44;5002215;28;20037;-70
2020/12/31 00:50:21;;;;;;;40.65;20.35;;;;;;;5.65;89.31;99338.41;5018614;28;20121;-69
2020/12/31 00:52:47;;;;;;;40.28;20.33;;;;;;;5.93;89.38;99364.25;5036103;28;20390;-69
2020/12/31 00:55:13;;;;;;;42.25;20.88;;;;;;;5.94;90.07;99378.34;5036048;28;20040;-69
2020/12/31 00:57:38;;;;;;;43.17;19.27;;;;;;;5.57;90.50;99324.72;5018240;28;20048;-69
2020/12/31 01:00:05;;;;;;;43.78;21.17;;;;;;;5.89;91.19;99388.31;5018138;28;20033;-70
2020/12/31 01:02:31;;;;;;;48.05;21.77;;;;;;;5.62;91.49;99359.75;5035464;28;20167;-68
2020/12/31 01:04:56;;;;;;;47.03;21.20;;;;;;;5.79;91.18;99381.78;5035692;28;20029;-68
2020/12/31 01:07:21;;;;;;;41.92;20.13;;;;;;;5.74;91.51;99382.88;5035785;28;20544;-71
2020/12/31 01:09:47;;;;;;;43.05;20.88;;;;;;;5.78;91.78;99393.28;5035387;28;20036;-67
2020/12/31 01:12:12;;;;;;;45.22;20.48;;;;;;;5.89;91.27;99398.88;5017952;28;20544;-69
2020/12/31 01:14:38;;;;;;;38.90;19.33;;;;;;;5.87;91.00;99384.84;5035257;28;20034;-69
2020/12/31 01:17:03;;;;;;;45.97;21.40;;;;;;;5.98;91.32;99399.28;5018128;28;20037;-69
2020/12/31 01:19:29;;;;;;;47.47;22.10;;;;;;;6.00;91.25;99388.59;5017815;28;20034;-70
2020/12/31 01:21:54;;;;;;;47.30;21.60;;;;;;;6.13;90.54;99402.84;5017819;28;20475;-70
2020/12/31 01:24:20;;;;;;;49.95;21.48;;;;;;;6.01;91.08;99398.25;5035409;28;20544;-70
2020/12/31 01:26:46;;;;;;;47.08;21.75;;;;;;;5.89;90.90;99367.13;5017455;28;20038;-70
2020/12/31 01:29:12;;;;;;;51.33;21.98;;;;;;;5.83;91.10;99352.44;5035303;28;20418;-72
2020/12/31 01:31:37;;;;;;;48.83;21.88;;;;;;;5.80;90.83;99335.88;5035016;28;20470;-70
2020/12/31 01:34:05;;;;;;;48.45;21.70;;;;;;;6.05;90.99;99378.59;5035488;28;20387;-70
2020/12/31 01:36:32;;;;;;;53.53;22.98;;;;;;;5.86;91.14;99331.06;5035028;28;20048;-70
2020/12/31 01:38:59;;;;;;;49.85;22.90;;;;;;;5.96;91.52;99360.56;5035396;28;20036;-70
2020/12/31 01:41:25;;;;;;;46.65;22.95;;;;;;;5.78;91.70;99365.03;5035112;28;20037;-78
2020/12/31 01:44:05;;;;;;;44.08;22.45;;;;;;;5.78;90.18;99357.09;5034985;28;20483;-70
2020/12/31 01:46:33;;;;;;;38.17;19.92;;;;;;;5.82;89.47;99368.41;5034943;28;20029;-70
2020/12/31 01:48:59;;;;;;;47.30;21.73;;;;;;;5.70;89.92;99348.75;5016902;28;20034;-70
2020/12/31 01:51:25;;;;;;;35.97;18.90;;;;;;;5.89;88.79;99356.53;5034412;28;20025;-75
2020/12/31 01:53:56;;;;;;;36.72;19.77;;;;;;;5.85;89.37;99357.63;5035125;28;20044;-70
2020/12/31 01:56:27;;;;;;;41.35;21.27;;;;;;;5.75;89.28;99358.13;5001412;28;20047;-71
2020/12/31 01:58:53;;;;;;;43.72;21.30;;;;;;;5.74;89.22;99353.78;5017255;28;20116;-71
2020/12/31 02:01:21;;;;;;;38.92;21.33;;;;;;;5.66;88.60;99350.69;5017205;28;20125;-70
2020/12/31 02:03:47;;;;;;;38.50;20.38;;;;;;;5.67;88.58;99349.75;5034559;28;20065;-71
2020/12/31 02:06:12;;;;;;;40.00;19.92;;;;;;;5.43;88.84;99309.63;5017191;28;20410;-70
2020/12/31 02:08:38;;;;;;;41.08;20.48;;;;;;;5.24;88.25;99295.69;5034544;28;20025;-71
2020/12/31 02:11:04;;;;;;;40.75;21.90;;;;;;;5.61;88.63;99351.91;5017047;28;20037;-70
2020/12/31 02:13:32;;;;;;;42.20;22.02;;;;;;;5.38;88.89;99324.03;5034409;28;20047;-71
2020/12/31 02:15:58;;;;;;;39.80;21.05;;;;;;;5.47;88.94;99356.13;5034630;28;20030;-70
2020/12/31 02:18:23;;;;;;;42.53;22.33;;;;;;;5.46;89.08;99349.13;5016905;28;20036;-70
2020/12/31 02:20:48;;;;;;;42.92;22.13;;;;;;;5.51;88.66;99350.69;5034048;28;20510;-70
2020/12/31 02:23:14;;;;;;;40.78;20.80;;;;;;;5.25;88.93;99310.59;5016657;28;20034;-70
2020/12/31 02:25:39;;;;;;;44.58;22.15;;;;;;;5.27;89.34;99331.69;5016232;28;20044;-71
2020/12/31 02:28:05;;;;;;;47.33;23.52;;;;;;;5.51;89.05;99361.25;5034450;28;20356;-70
2020/12/31 02:30:30;;;;;;;44.22;23.13;;;;;;;5.36;89.85;99360.28;5016123;28;20107;-72
2020/12/31 02:32:56;;;;;;;45.42;23.02;;;;;;;5.35;89.11;99351.50;5034648;28;20072;-70
2020/12/31 02:35:21;;;;;;;45.17;23.20;;;;;;;5.36;89.60;99366.41;5016422;28;20037;-71
2020/12/31 02:37:47;;;;;;;45.92;22.50;;;;;;;5.22;89.17;99355.72;5034383;28;20091;-70
2020/12/31 02:40:12;;;;;;;43.92;21.95;;;;;;;5.40;89.12;99367.09;5034001;28;20567;-71
2020/12/31 02:42:37;;;;;;;44.08;23.50;;;;;;;5.38;88.90;99361.03;4999807;28;20034;-70
2020/12/31 02:45:04;;;;;;;44.42;22.20;;;;;;;5.30;88.66;99342.06;5016270;28;20032;-70
2020/12/31 02:47:38;;;;;;;49.40;23.35;;;;;;;5.40;88.53;99353.88;5033606;28;20116;-79
2020/12/31 02:50:03;;;;;;;48.33;23.65;;;;;;;5.28;89.65;99363.31;5033840;28;20021;-72
2020/12/31 02:52:29;;;;;;;50.97;22.50;;;;;;;5.23;89.76;99362.72;5034196;28;20038;-77
2020/12/31 02:54:54;;;;;;;45.75;22.98;;;;;;;5.15;89.92;99368.41;5033878;28;20112;-71
2020/12/31 02:57:20;;;;;;;48.15;22.50;;;;;;;5.12;89.87;99343.94;4999826;28;20080;-71
2020/12/31 02:59:45;;;;;;;49.15;23.75;;;;;;;5.08;90.22;99345.00;4999182;28;20069;-71
2020/12/31 03:02:11;;;;;;;48.22;23.70;;;;;;;5.06;89.90;99345.09;5033955;28;20461;-71
2020/12/31 03:04:36;;;;;;;48.05;22.92;;;;;;;5.10;90.18;99361.63;5033333;28;20030;-71
2020/12/31 03:07:01;;;;;;;46.65;23.70;;;;;;;5.15;90.00;99356.97;5033771;28;20037;-71
2020/12/31 03:09:27;;;;;;;48.45;23.60;;;;;;;5.05;90.10;99338.09;5033242;28;20095;-70
2020/12/31 03:11:52;;;;;;;47.67;22.60;;;;;;;5.10;90.01;99357.19;5033581;28;20545;-71
2020/12/31 03:14:18;;;;;;;44.42;23.15;;;;;;;5.05;90.44;99353.97;5016018;28;20042;-69
2020/12/31 03:16:43;;;;;;;44.53;22.95;;;;;;;4.91;89.82;99316.78;5015535;28;20048;-70
2020/12/31 03:19:09;;;;;;;48.40;23.33;;;;;;;5.16;89.87;99356.03;5015693;28;20038;-70
2020/12/31 03:21:34;;;;;;;44.10;21.40;;;;;;;4.85;89.28;99294.22;5015649;28;20029;-70
2020/12/31 03:24:00;;;;;;;42.85;21.70;;;;;;;5.23;88.78;99346.00;5015519;28;20037;-70
2020/12/31 03:26:25;;;;;;;42.15;22.20;;;;;;;4.90;89.38;99307.16;5033187;28;20041;-70
2020/12/31 03:28:51;;;;;;;42.00;21.17;;;;;;;5.17;89.04;99337.44;5032696;28;20050;-70
2020/12/31 03:31:16;;;;;;;44.95;20.98;;;;;;;5.23;88.79;99338.06;5015973;28;20043;-70
2020/12/31 03:33:42;;;;;;;42.20;21.45;;;;;;;5.17;88.75;99342.72;5032863;28;20053;-70
2020/12/31 03:36:07;;;;;;;43.72;22.25;;;;;;;5.13;88.87;99340.34;5015416;28;20110;-70
2020/12/31 03:38:33;;;;;;;42.63;21.73;;;;;;;5.13;88.80;99324.50;5015002;28;20033;-76
2020/12/31 03:40:58;;;;;;;44.63;21.92;;;;;;;5.10;89.13;99328.13;5033281;28;20026;-69
2020/12/31 03:43:24;;;;;;;42.47;20.70;;;;;;;5.08;89.20;99324.72;5033235;28;20037;-69
2020/12/31 03:45:49;;;;;;;45.15;21.25;;;;;;;4.95;89.51;99296.38;5015440;28;20044;-69
2020/12/31 03:48:14;;;;;;;45.13;22.38;;;;;;;4.95;89.85;99299.88;5015337;28;20479;-69
2020/12/31 03:50:41;;;;;;;46.92;22.92;;;;;;;5.24;89.67;99326.56;4998601;28;20395;-68
2020/12/31 03:53:07;;;;;;;48.58;21.88;;;;;;;5.33;89.28;99328.72;5032782;28;20364;-68
2020/12/31 03:55:33;;;;;;;43.55;21.50;;;;;;;5.25;89.51;99317.69;5032948;28;20120;-68
2020/12/31 03:57:59;;;;;;;45.22;23.45;;;;;;;5.07;90.05;99312.44;5032811;28;20041;-68
2020/12/31 04:00:24;;;;;;;45.10;21.83;;;;;;;5.07;90.32;99288.63;5015417;28;20057;-68
2020/12/31 04:02:50;;;;;;;43.00;20.85;;;;;;;5.17;90.43;99308.38;5014934;28;20034;-68
2020/12/31 04:05:15;;;;;;;41.70;20.73;;;;;;;5.17;90.75;99305.72;5032967;28;20036;-68
2020/12/31 04:07:41;;;;;;;46.97;23.02;;;;;;;5.13;90.95;99314.75;5014829;28;20043;-69
2020/12/31 04:10:06;;;;;;;44.40;21.45;;;;;;;5.21;90.81;99310.84;5015157;28;20057;-69
2020/12/31 04:12:31;;;;;;;45.22;22.40;;;;;;;5.15;90.96;99312.88;5033277;28;20033;-69
2020/12/31 04:14:57;;;;;;;44.67;22.00;;;;;;;4.93;90.98;99270.03;5018847;28;20091;-69
2020/12/31 04:17:22;;;;;;;42.33;21.83;;;;;;;4.94;91.21;99263.81;5036760;28;20033;-69
2020/12/31 04:19:48;;;;;;;44.72;22.40;;;;;;;5.16;91.29;99296.09;5002501;28;20037;-68
2020/12/31 04:22:13;;;;;;;44.95;22.95;;;;;;;5.21;91.41;99295.84;5002971;28;20065;-69
2020/12/31 04:24:38;;;;;;;46.13;22.63;;;;;;;5.23;91.23;99293.97;5036213;28;20463;-69
2020/12/31 04:27:04;;;;;;;45.38;22.23;;;;;;;5.03;91.25;99254.53;5036487;28;20399;-69
2020/12/31 04:29:29;;;;;;;46.17;21.95;;;;;;;5.30;91.11;99289.19;5039192;28;20053;-69
2020/12/31 04:31:55;;;;;;;45.05;21.20;;;;;;;4.96;91.05;99242.56;5056251;28;20084;-69
2020/12/31 04:34:20;;;;;;;41.67;21.45;;;;;;;5.33;91.26;99289.91;5055527;28;20052;-68
2020/12/31 04:36:46;;;;;;;43.85;21.60;;;;;;;5.27;91.06;99273.50;5054820;28;20041;-70
2020/12/31 04:39:12;;;;;;;44.35;21.92;;;;;;;5.24;91.90;99289.53;5055359;28;20044;-69
2020/12/31 04:41:37;;;;;;;43.17;21.77;;;;;;;4.81;92.52;99237.16;5038019;28;20033;-72
2020/12/31 04:44:03;;;;;;;38.55;21.02;;;;;;;4.94;92.32;99240.03;5055253;28;20090;-71
2020/12/31 04:46:30;;;;;;;45.03;21.85;;;;;;;5.28;92.34;99291.06;5056491;28;20029;-71
2020/12/31 04:49:05;;;;;;;46.47;22.30;;;;;;;5.24;92.59;99281.59;5054464;28;20056;-70
2020/12/31 04:51:35;;;;;;;43.25;21.08;;;;;;;5.27;92.28;99284.94;5055979;28;20033;-71
2020/12/31 04:54:04;;;;;;;41.90;20.98;;;;;;;5.31;92.03;99286.50;5055928;28;20033;-70
2020/12/31 04:56:34;;;;;;;42.17;21.83;;;;;;;5.15;92.40;99269.75;5056027;28;20036;-70
2020/12/31 04:58:59;;;;;;;43.83;22.27;;;;;;;5.13;92.46;99266.31;5055515;28;20505;-71
2020/12/31 05:01:24;;;;;;;43.50;22.73;;;;;;;5.14;92.58;99279.47;5054627;28;20041;-70
2020/12/31 05:03:50;;;;;;;43.67;21.80;;;;;;;5.01;92.72;99251.94;5055523;28;20075;-71
2020/12/31 05:06:18;;;;;;;39.97;21.20;;;;;;;5.22;92.79;99283.50;5038155;28;20033;-70
2020/12/31 05:08:45;;;;;;;45.05;21.48;;;;;;;5.19;92.71;99276.56;5055506;28;20029;-70
2020/12/31 05:11:11;;;;;;;47.13;21.85;;;;;;;5.18;93.20;99283.63;5055521;28;20129;-70
2020/12/31 05:13:50;;;;;;;45.53;22.27;;;;;;;5.23;93.06;99287.84;5055819;28;20123;-70
2020/12/31 05:16:28;;;;;;;41.13;21.13;;;;;;;5.00;92.85;99242.31;5055603;28;20032;-69
2020/12/31 05:18:55;;;;;;;45.97;21.48;;;;;;;5.36;92.64;99288.88;5055051;28;20037;-70
2020/12/31 05:21:20;;;;;;;41.60;19.83;;;;;;;5.30;92.45;99281.25;5055583;28;20067;-70
2020/12/31 05:23:45;;;;;;;43.15;21.38;;;;;;;5.01;92.04;99265.16;5053516;28;20069;-71
2020/12/31 05:26:27;;;;;;;40.95;20.27;;;;;;;5.16;91.93;99271.44;5053587;28;20462;-71
2020/12/31 05:28:53;;;;;;;41.13;20.30;;;;;;;5.18;91.96;99286.28;5050036;28;20140;-71
2020/12/31 05:31:21;;;;;;;42.60;21.02;;;;;;;5.20;91.52;99282.69;5035429;28;20069;-70
2020/12/31 05:33:46;;;;;;;41.30;19.70;;;;;;;5.29;92.11;99285.69;5017452;28;20046;-71
2020/12/31 05:36:18;;;;;;;45.20;20.17;;;;;;;5.17;92.76;99279.28;5035087;28;20099;-70
2020/12/31 05:38:45;;;;;;;49.10;20.40;;;;;;;5.15;93.30;99281.16;5034951;28;20032;-71
2020/12/31 05:41:11;;;;;;;47.88;19.55;;;;;;;5.09;93.32;99281.47;5035181;28;20038;-69
2020/12/31 05:43:39;;;;;;;49.17;19.40;;;;;;;5.16;93.79;99293.44;5034924;28;20061;-70
2020/12/31 05:46:09;;;;;;;54.88;21.15;;;;;;;5.17;93.97;99295.16;5034815;28;20033;-71
2020/12/31 05:48:35;;;;;;;49.33;20.38;;;;;;;5.16;94.05;99298.72;5034970;28;20069;-71
2020/12/31 05:51:19;;;;;;;47.33;20.88;;;;;;;5.26;93.69;99303.53;5017236;28;20064;-71
2020/12/31 05:53:47;;;;;;;47.35;20.45;;;;;;;5.24;93.12;99308.06;5034649;28;20025;-71
2020/12/31 05:56:15;;;;;;;43.15;20.20;;;;;;;5.16;93.19;99289.94;5034734;28;20025;-70
2020/12/31 05:58:44;;;;;;;42.85;20.70;;;;;;;5.08;92.57;99266.56;5035014;28;20033;-70
2020/12/31 06:01:14;;;;;;;44.25;19.67;;;;;;;5.25;92.83;99297.38;5035304;28;20429;-71
2020/12/31 06:03:47;;;;;;;44.92;21.15;;;;;;;5.26;93.08;99298.25;5017167;28;20463;-71
2020/12/31 06:06:17;;;;;;;42.83;19.85;;;;;;;5.15;93.20;99291.75;5034738;28;20124;-71
2020/12/31 06:08:56;;;;;;;45.03;19.85;;;;;;;5.20;93.30;99303.84;5000365;28;20042;-72
2020/12/31 06:11:34;;;;;;;45.20;19.38;;;;;;;5.03;92.74;99271.25;5034796;28;20025;-71
2020/12/31 06:14:02;;;;;;;45.08;19.70;;;;;;;5.21;93.33;99305.56;5034210;28;20034;-71
2020/12/31 06:16:36;;;;;;;45.25;20.63;;;;;;;5.21;93.12;99322.28;5034624;28;20056;-71
2020/12/31 06:19:10;;;;;;;41.90;20.38;;;;;;;5.20;93.09;99320.56;5034159;28;20037;-71
2020/12/31 06:21:41;;;;;;;44.15;20.55;;;;;;;5.17;93.26;99320.72;5034635;28;20046;-71
2020/12/31 06:24:12;;;;;;;42.17;19.55;;;;;;;5.12;93.04;99307.78;5034240;28;20026;-71
2020/12/31 06:26:41;;;;;;;43.17;20.70;;;;;;;5.12;93.45;99326.28;5016750;28;20044;-70
2020/12/31 06:29:07;;;;;;;44.90;20.50;;;;;;;5.10;92.84;99317.53;5026199;28;20088;-70
2020/12/31 06:31:33;;;;;;;39.53;19.65;;;;;;;5.21;93.03;99329.34;5054073;28;20052;-70
2020/12/31 06:33:59;;;;;;;38.25;19.48;;;;;;;5.20;92.82;99325.00;5052712;28;20402;-71
2020/12/31 06:36:33;;;;;;;39.72;18.83;;;;;;;5.21;92.58;99332.88;5053954;28;20044;-70
2020/12/31 06:38:58;;;;;;;42.28;19.25;;;;;;;5.22;92.81;99341.66;5054040;28;20071;-71
2020/12/31 06:41:30;;;;;;;42.67;19.95;;;;;;;5.17;92.84;99339.25;5053936;28;20052;-70
2020/12/31 06:44:15;;;;;;;45.42;20.58;;;;;;;5.25;92.82;99334.41;5053636;28;20403;-70
2020/12/31 06:46:46;;;;;;;43.42;20.38;;;;;;;5.28;92.62;99336.03;5052867;28;20462;-70
2020/12/31 06:49:12;;;;;;;41.70;20.00;;;;;;;5.24;92.50;99310.69;5053659;28;20497;-71
2020/12/31 06:51:38;;;;;;;40.28;19.27;;;;;;;5.34;92.62;99338.34;5053746;28;20432;-71
2020/12/31 06:54:04;;;;;;;44.05;19.23;;;;;;;5.33;92.36;99334.84;5053460;28;20037;-71
2020/12/31 06:56:47;;;;;;;40.22;19.58;;;;;;;5.27;92.55;99331.69;5053868;28;20041;-70
2020/12/31 06:59:31;;;;;;;41.00;17.90;;;;;;;5.24;92.83;99347.72;5053737;28;20035;-70
2020/12/31 07:01:57;;;;;;;;;;;;;;;5.27;92.95;99344.91;5054270;28;20029;-71
2020/12/31 07:04:36;;;;;;;38.15;17.27;;;;;;;5.28;93.08;99346.59;5053513;28;19913;-71
2020/12/31 07:07:24;;;;;;;40.10;17.98;;;;;;;5.27;92.92;99351.03;5053125;28;20525;-71
2020/12/31 07:09:54;;;;;;;39.72;17.98;;;;;;;5.13;93.00;99312.13;5053273;28;20115;-70
2020/12/31 07:12:34;;;;;;;34.97;16.63;;;;;;;5.34;92.71;99346.28;5053531;28;20029;-71
2020/12/31 07:14:59;;;;;;;36.65;17.67;;;;;;;5.32;92.45;99329.66;5052994;28;20544;-71
2020/12/31 07:17:33;;;;;;;37.88;16.48;;;;;;;5.41;92.86;99339.75;5053285;28;20025;-71
2020/12/31 07:19:59;;;;;;;;;;;;;;;5.40;92.38;99344.19;5053401;28;20470;-71
2020/12/31 07:22:26;;;;;;;31.02;15.90;;;;;;;5.44;92.03;99339.56;5053321;28;19971;-69
2020/12/31 07:24:54;;;;;;;35.17;17.67;;;;;;;5.35;91.47;99325.03;5052881;28;20037;-70
2020/12/31 07:27:41;;;;;;;36.15;17.67;;;;;;;5.42;91.28;99341.44;5051749;28;20498;-68
2020/12/31 07:30:06;;;;;;;35.17;16.75;;;;;;;5.37;91.02;99335.53;5051382;28;20089;-68
2020/12/31 07:32:58;;;;;;;31.88;15.52;;;;;;;5.48;90.86;99341.09;5053302;28;20064;-68
2020/12/31 07:35:23;;;;;;;34.40;15.48;;;;;;;5.43;90.50;99343.16;5052995;28;20470;-66
2020/12/31 07:37:58;;;;;;;35.28;17.48;;;;;;;5.28;91.29;99343.97;5051857;28;20025;-67
2020/12/31 07:40:41;;;;;;;40.45;17.38;;;;;;;5.37;90.90;99339.03;5052802;28;20441;-68
2020/12/31 07:43:09;;;;;;;35.40;16.85;;;;;;;5.42;90.47;99344.09;5052969;28;20086;-68
2020/12/31 07:45:35;;;;;;;34.25;16.90;;;;;;;5.45;90.13;99344.78;5052807;28;20029;-69
2020/12/31 07:48:02;;;;;;;33.13;16.83;;;;;;;5.36;89.66;99320.59;5050617;28;20393;-69
2020/12/31 07:50:28;;;;;;;33.75;15.98;;;;;;;5.43;89.59;99343.16;5051646;28;20090;-68
2020/12/31 07:52:54;;;;;;;36.85;17.17;;;;;;;5.10;90.51;99314.91;5052386;28;20143;-70
2020/12/31 07:55:20;;;;;;;33.95;17.17;;;;;;;5.34;90.13;99344.50;5052814;28;20483;-70
2020/12/31 07:57:45;;;;;;;31.52;16.45;;;;;;;5.29;90.05;99335.09;5051587;28;20025;-70
2020/12/31 08:00:16;;;;;;;35.28;17.30;;;;;;;5.30;90.21;99339.44;5051381;28;20430;-69
2020/12/31 08:02:49;;;;;;;35.05;16.73;;;;;;;5.46;90.19;99353.56;5052624;28;20561;-69
2020/12/31 08:05:16;;;;;;;38.42;17.05;;;;;;;5.50;89.32;99352.47;5051124;28;20410;-69
2020/12/31 08:07:43;;;;;;;35.38;16.50;;;;;;;5.46;89.42;99350.91;5052833;28;20072;-69
2020/12/31 08:10:09;;;;;;;35.67;17.65;;;;;;;5.38;89.56;99339.88;5051146;28;20107;-70
2020/12/31 08:12:38;;;;;;;36.40;17.02;;;;;;;5.40;89.62;99353.88;5052493;28;20064;-69
2020/12/31 08:15:04;;;;;;;35.72;17.70;;;;;;;5.01;90.41;99310.09;5052346;28;20032;-70
2020/12/31 08:17:30;;;;;;;37.35;17.15;;;;;;;5.28;90.41;99344.81;5052571;28;20120;-69
2020/12/31 08:19:56;;;;;;;33.50;16.30;;;;;;;5.34;89.94;99343.66;5050943;28;20128;-71
2020/12/31 08:22:21;;;;;;;33.42;17.23;;;;;;;5.33;89.95;99348.06;5052829;28;20041;-69
2020/12/31 08:25:11;;;;;;;36.72;16.33;;;;;;;5.22;90.19;99328.44;5051661;28;20411;-69
2020/12/31 08:27:40;;;;;;;32.97;16.45;;;;;;;5.38;89.79;99358.41;5051173;28;20057;-68
2020/12/31 08:30:09;;;;;;;37.95;18.45;;;;;;;5.32;90.35;99356.09;5034296;28;20387;-68
2020/12/31 08:32:55;;;;;;;37.30;17.83;;;;;;;5.41;90.13;99342.38;5051197;28;20116;-70
2020/12/31 08:35:57;;;;;;;36.15;17.50;;;;;;;5.40;90.13;99352.13;5052502;28;20040;-68
2020/12/31 08:38:23;;;;;;;39.92;18.75;;;;;;;5.41;90.51;99352.97;4979249;28;20041;-69
2020/12/31 08:40:48;;;;;;;40.58;17.58;;;;;;;5.42;90.82;99341.44;5043846;28;20107;-69
2020/12/31 08:43:23;;;;;;;39.25;18.50;;;;;;;5.42;90.61;99354.69;5052289;28;20032;-67
2020/12/31 08:45:50;;;;;;;36.78;17.63;;;;;;;5.39;89.92;99352.16;5034926;28;20522;-70
2020/12/31 08:48:23;;;;;;;38.60;17.73;;;;;;;5.44;90.26;99358.09;5050960;28;20546;-70
2020/12/31 08:51:10;;;;;;;37.38;17.45;;;;;;;5.43;90.28;99356.38;5052371;28;20029;-69
2020/12/31 08:53:52;;;;;;;39.20;17.63;;;;;;;5.46;90.71;99364.13;5052424;28;20398;-69
2020/12/31 08:56:19;;;;;;;35.80;17.67;;;;;;;5.50;90.42;99354.25;5052016;28;20041;-69
2020/12/31 08:58:45;;;;;;;34.00;16.25;;;;;;;5.44;90.54;99350.16;5051827;28;20040;-71
2020/12/31 09:01:24;;;;;;;33.70;15.52;;;;;;;5.42;90.80;99336.16;5054468;28;20037;-69
2020/12/31 09:03:50;;;;;;;31.77;15.82;;;;;;;5.44;90.46;99335.13;5055657;28;20044;-68
2020/12/31 09:06:26;;;;;;;34.28;16.50;;;;;;;5.54;90.88;99351.38;5055245;28;20037;-68
2020/12/31 09:08:52;;;;;;;32.78;16.35;;;;;;;5.36;90.67;99300.31;5070957;28;20124;-70
2020/12/31 09:11:24;;;;;;;34.38;16.33;;;;;;;5.59;90.83;99333.44;5037566;28;20045;-68
2020/12/31 09:13:50;;;;;;;32.95;16.63;;;;;;;5.62;91.05;99349.16;5055863;28;20061;-69
2020/12/31 09:16:15;;;;;;;36.65;17.13;;;;;;;5.33;91.07;99292.53;5055083;28;20111;-68
2020/12/31 09:18:42;;;;;;;35.38;16.73;;;;;;;5.59;90.88;99319.34;5054425;28;20072;-69
2020/12/31 09:21:08;;;;;;;35.15;16.80;;;;;;;5.70;91.14;99330.22;5037727;28;20033;-68
2020/12/31 09:23:34;;;;;;;34.55;17.27;;;;;;;5.75;90.94;99326.38;5055168;28;20040;-68
2020/12/31 09:26:00;;;;;;;35.65;16.83;;;;;;;5.73;91.35;99330.06;5054974;28;20041;-74
2020/12/31 09:28:26;;;;;;;35.58;16.20;;;;;;;5.79;91.12;99326.19;5053778;28;20099;-68
2020/12/31 09:30:55;;;;;;;31.83;16.02;;;;;;;5.86;91.04;99324.94;5001187;28;20475;-68
2020/12/31 09:33:23;;;;;;;33.95;17.02;;;;;;;5.85;90.93;99312.63;5017104;28;20438;-68
2020/12/31 09:35:49;;;;;;;34.17;16.73;;;;;;;5.93;91.14;99323.69;5039071;28;20040;-69
2020/12/31 09:38:18;;;;;;;30.95;16.33;;;;;;;5.97;90.64;99325.22;5029250;28;20067;-71
2020/12/31 09:40:44;;;;;;;32.75;17.63;;;;;;;5.93;90.86;99324.53;5035847;28;20367;-71
2020/12/31 09:43:10;;;;;;;31.88;16.27;;;;;;;6.03;91.00;99312.50;5018859;28;20044;-73
2020/12/31 09:45:38;;;;;;;35.25;17.27;;;;;;;6.10;91.17;99322.75;5034270;28;20037;-69
2020/12/31 09:48:04;;;;;;;33.17;16.83;;;;;;;6.08;90.57;99312.25;5034232;28;20041;-71
2020/12/31 09:50:30;;;;;;;32.17;16.55;;;;;;;6.05;90.26;99299.16;5026474;28;20029;-71
2020/12/31 09:52:56;;;;;;;31.77;15.77;;;;;;;6.17;90.56;99309.06;5036087;28;20471;-69
2020/12/31 09:55:22;;;;;;;32.53;16.42;;;;;;;6.19;90.32;99317.78;5054301;28;20033;-69
2020/12/31 09:57:48;;;;;;;31.17;16.02;;;;;;;6.07;90.54;99301.72;5053595;28;20032;-76
2020/12/31 10:00:14;;;;;;;34.08;17.27;;;;;;;6.02;90.41;99294.91;5036084;28;20106;-71
2020/12/31 10:02:39;;;;;;;34.35;17.40;;;;;;;6.24;90.23;99313.06;5053644;28;20036;-71
2020/12/31 10:05:05;;;;;;;34.55;18.25;;;;;;;5.98;90.45;99276.63;5019455;28;20482;-74
2020/12/31 10:07:31;;;;;;;32.83;17.23;;;;;;;6.34;89.74;99320.47;5035067;28;20509;-71
2020/12/31 10:09:57;;;;;;;33.05;17.38;;;;;;;6.32;90.27;99318.78;5035320;28;20032;-71
2020/12/31 10:12:27;;;;;;;37.13;18.23;;;;;;;6.31;90.18;99319.72;5053209;28;20041;-73
2020/12/31 10:14:53;;;;;;;34.17;17.58;;;;;;;6.21;90.19;99310.59;5035363;28;20029;-74
2020/12/31 10:17:19;;;;;;;34.25;18.08;;;;;;;6.06;90.27;99277.03;5053535;28;20045;-74
2020/12/31 10:19:45;;;;;;;30.50;16.98;;;;;;;6.32;89.86;99302.88;5052839;28;20450;-71
2020/12/31 10:22:11;;;;;;;35.42;17.80;;;;;;;6.10;90.41;99265.34;5035992;28;20128;-69
2020/12/31 10:24:36;;;;;;;34.45;16.85;;;;;;;6.32;90.36;99281.69;5034294;28;20482;-68
2020/12/31 10:27:03;;;;;;;33.60;16.65;;;;;;;6.38;90.02;99282.31;5019159;28;20052;-70
2020/12/31 10:29:29;;;;;;;25.50;14.10;;;;;;;6.46;90.27;99287.97;5052571;28;20543;-72
2020/12/31 10:31:56;;;;;;;23.70;11.82;;;;;;;6.52;89.81;99287.63;5053303;28;20118;-72
2020/12/31 10:34:23;;;;;;;24.08;12.07;;;;;;;6.42;89.38;99276.72;5035184;28;20158;-69
2020/12/31 10:36:53;;;;;;;22.52;11.05;;;;;;;6.55;89.63;99282.13;5052747;28;20033;-72
2020/12/31 10:39:19;;;;;;;21.85;11.73;;;;;;;6.48;90.32;99278.16;5035061;28;20470;-70
2020/12/31 10:41:49;;;;;;;21.85;12.07;;;;;;;6.52;89.91;99283.19;5018706;28;20891;-72
2020/12/31 10:44:15;;;;;;;20.55;10.85;;;;;;;6.64;89.46;99281.59;5052950;28;20036;-69
2020/12/31 10:46:41;;;;;;;21.77;10.63;;;;;;;6.58;89.39;99277.53;5052864;28;20029;-73
2020/12/31 10:49:06;;;;;;;20.33;10.65;;;;;;;6.59;88.81;99275.72;5035045;28;20494;-70
2020/12/31 10:51:36;;;;;;;24.27;11.90;;;;;;;6.38;88.60;99245.22;5034624;28;20052;-71
2020/12/31 10:54:03;;;;;;;24.30;12.43;;;;;;;6.45;89.23;99268.59;5053099;28;20044;-70
2020/12/31 10:56:29;;;;;;;21.13;11.50;;;;;;;6.47;89.61;99257.91;5034103;28;20063;-70
2020/12/31 10:58:55;;;;;;;21.85;11.90;;;;;;;6.50;89.03;99263.03;5035172;28;20460;-70
2020/12/31 11:01:21;;;;;;;22.85;11.85;;;;;;;6.50;89.17;99241.84;5052502;28;20226;-70
2020/12/31 11:03:47;;;;;;;21.27;11.70;;;;;;;6.47;88.93;99234.06;5053146;28;20029;-70
2020/12/31 11:06:24;;;;;;;20.38;11.00;;;;;;;6.55;88.96;99251.19;5018171;28;20055;-70
2020/12/31 11:08:50;;;;;;;20.05;10.55;;;;;;;6.34;88.70;99206.59;5052322;28;20120;-74
2020/12/31 11:11:17;;;;;;;19.10;10.38;;;;;;;6.43;88.66;99203.41;5052062;28;20116;-70
2020/12/31 11:13:43;;;;;;;24.33;11.50;;;;;;;6.77;88.77;99250.78;5034755;28;20040;-71
2020/12/31 11:16:09;;;;;;;26.10;14.43;;;;;;;6.79;89.29;99248.03;5018140;28;20044;-72
2020/12/31 11:18:35;;;;;;;29.73;15.60;;;;;;;6.78;89.64;99249.84;5034742;28;20095;-71
2020/12/31 11:21:01;;;;;;;29.52;15.57;;;;;;;6.71;89.73;99226.44;5034348;28;20037;-71
2020/12/31 11:23:26;;;;;;;25.90;13.70;;;;;;;6.82;89.24;99243.38;5033424;28;20178;-70
2020/12/31 11:25:52;;;;;;;25.77;13.90;;;;;;;6.95;88.01;99237.34;5052659;28;20069;-71
2020/12/31 11:28:18;;;;;;;25.98;13.50;;;;;;;6.76;88.21;99229.69;5033902;28;20083;-70
2020/12/31 11:30:44;;;;;;;27.83;15.02;;;;;;;6.91;88.64;99241.13;5034568;28;20478;-71